Jiexiu, China
Current Conditions -  °F | °C
As of 4:30 AM on Saturday 25 Oct 2014 (Local Time) from ZBYN Reporting Station
Haze Haze  
Wind Chill: 43°   Ceiling: Unl
Heat Index: 43°   Visibility: 1.8mi
Dew Point: 39°   Wind: 2mph
Humidity: 87%   Direction: 260°W
Pressure: 29.97"   Gusts: NA
Location:  37.04°N, 111.9°E
Report Text: ZBYN 242030Z 26001MPS 3000 BR NSC 06/04 Q1015 NOSIG
Loading
Personal Weather Stations






























Interactive Weather Map
Tropical Storm Tracking
New forecast layout! Learn more

10-Day Weather Forecast

Advertisements
Track Severe Weather on mobile